CAA2 weather

St. Andre-Avellin Aerodrome
St. Andre Avellin, Quebec, Canada

Public forecast

Using degrees Celsius for public forecast. Weather courtesy of forecast.io.

Closest aviation weather report (METAR) to St. Andre-Avellin Aerodrome

Closest report is Ottawa / Gatineau Airport, 24.5 nm (45.4 km) WSW. Retrieved 2020/07/10 21:00 UTC (5 minutes ago):

CYND 102100Z 01010G18KT 15SM BKN070TCU BKN130 BKN210 27/21 A2979 RMK TCU5AC1CI1 DIST SH N-NE SLP089 DENSITY ALT 1900FT

Closest aviation forecast (TAF) to St. Andre-Avellin Aerodrome

Closest forecast is Ottawa / Gatineau Airport, 24.5 nm (45.4 km) WSW. Retrieved 2020/07/10 18:00 UTC (3 hours ago):

TAF CYND 101740Z 1018/1101 16008KT P6SM FEW040 FM101900 16012KT P6SM SCT070 PROB30 1020/1024 2SM TSRA BR BKN070CB RMK NXT FCST WILL BE ISSUED AT 111245Z